Lemhi County Airport
KSMN : now visible

Airfield :











YOU CAN JOIN US ON...

 
LOGIN :

Register | Disclaimer

   EN    FR    IT 

 









Legend :    VFR   Marginal VFR   IFR   Intensive IFR   Very Intensive IFR
Visi :
Ceiling :
>= 8 km
>= 3000ft
5 to 8 km
1000 to 3000 ft
1500m to 5 km
500 to 1000 ft
800 to 1500m
200 to 500 ft
< 800m
< 200 ft
Symbols :   Thunderstorms  Fog  Heavy snow  Heavy precipitations  Wind > 20 kt






- Airport Elevation : 4043 ft


KSMN - Lemhi County

CURRENT METAR :
  • 280056Z AUTO 35007KT 10SM CLR 24/01 A3007 RMK AO2 SLP163 T02440011

EXPIRED METARs :
  • 272356Z AUTO 01013KT 10SM CLR 25/02 A3007 RMK AO2 SLP159 T02500022 10256 20189 55006
  • 272256Z AUTO 02013G16KT 10SM CLR 26/03 A3006 RMK AO2 SLP158 T02560028

TAF KSMN
Valid from the 28 at 00:00 until the 29 at 00:00 UTC


272322Z 2800/2824 01011KT P6SM SKC
FM280200 36006KT P6SM SKC
FM280400 00000KT P6SM SKC
FM282200 36009KT P6SM SKC
KZLC FIR / North America



MET'MAP, your aeronautical weather chart ! - Copyright ORBIFLY December 2007 - Disclaimer

ORBIFLY MET'MAP TEAM :

Programming & Development : Alexandra Zaïnal
Concept & original design : Baudouin d'Aumeries
Assistance for programming : Marc-Olivier Méhu
Technical & hardware support : Manuel Goepfert

Contact : metmap@orbifly.com




SOURCES & CREDITS :

   NOAA       Earth
Advisory